Time;durP1;ratioP1;P1;durP2;ratioP2;P2;SDS_P1;SDS_P2;PMS_P1;PMS_P2;Temp;Humidity;BMP_temperature;BMP_pressure;BME280_temperature;BME280_humidity;BME280_pressure;Samples;Min_cycle;Max_cycle;Signal;HPM_P1;HPM_P2
2022/03/12 00:01:15;;;;;;;;;;;;;;;;;;4953068;28;19926;-53
2022/03/12 00:03:42;;;;;;;;;;;9.70;82.30;;;;;;4952102;28;20011;-54
2022/03/12 00:06:10;;;;;;;;;;;;;;;;;;4949903;28;19927;-53
2022/03/12 00:08:42;;;;;;;;;;;;;;;;;;4952622;29;20008;-54
2022/03/12 00:11:12;;;;;;;;;;;9.70;81.50;;;;;;4949905;28;19946;-53
2022/03/12 00:13:39;;;;;;;;;;;;;;;;;;4952322;28;20002;-53
2022/03/12 00:18:35;;;;;;;;;;;10.10;79.10;;;;;;4995091;23;19983;-50
2022/03/12 00:21:08;;;;;;;;;;;9.90;81.80;;;;;;4974501;28;19926;-50
2022/03/12 00:23:35;;;;;;;;;;;9.90;82.10;;;;;;4974193;28;19932;-50
2022/03/12 00:26:02;;;;;;;;;;;;;;;;;;4973732;28;19926;-49
2022/03/12 00:28:30;;;;;;;;;;;9.80;82.20;;;;;;4973395;28;20001;-49
2022/03/12 00:30:57;;;;;;;;;;;9.90;82.50;;;;;;4972979;28;20342;-49
2022/03/12 00:33:25;;;;;;;;;;;;;;;;;;4966611;28;19981;-49
2022/03/12 00:35:52;;;;;;;;;;;;;;;;;;4972414;28;19930;-50
2022/03/12 00:38:21;;;;;;;;;;;9.30;90.10;;;;;;4973217;28;20004;-49
2022/03/12 00:40:48;;;;;;;;;;;;;;;;;;4974402;28;19933;-50
2022/03/12 00:43:15;;;;;;;;;;;8.70;91.70;;;;;;4968075;28;19981;-50
2022/03/12 00:45:42;;;;;;;;;;;;;;;;;;4955252;28;19970;-50
2022/03/12 00:48:10;;;;;;;;;;;9.20;92.10;;;;;;4971495;28;19989;-49
2022/03/12 00:50:37;;;;;;;;;;;;;;;;;;4974011;28;19926;-50
2022/03/12 00:53:04;;;;;;;;;;;;;;;;;;4973368;28;19926;-49
2022/03/12 00:55:31;;;;;;;;;;;;;;;;;;4974099;28;19926;-50
2022/03/12 00:57:58;;;;;;;;;;;;;;;;;;4974123;28;20356;-50
2022/03/12 01:00:26;;;;;;;;;;;8.70;93.60;;;;;;4973886;28;19926;-49
2022/03/12 01:02:53;;;;;;;;;;;;;;;;;;4966720;28;19927;-49
2022/03/12 01:05:22;;;;;;;;;;;7.50;94.80;;;;;;4954305;28;20391;-50
2022/03/12 01:07:49;;;;;;;;;;;;;;;;;;4954726;29;19926;-50
2022/03/12 01:10:16;;;;;;;;;;;8.00;95.00;;;;;;4959293;28;19926;-49
2022/03/12 01:12:43;;;;;;;;;;;;;;;;;;4971607;28;19937;-50
2022/03/12 01:15:10;;;;;;;;;;;;;;;;;;4971497;28;20005;-49
2022/03/12 01:17:37;;;;;;;;;;;;;;;;;;4973653;28;20012;-48
2022/03/12 01:20:06;;;;;;;;;;;7.60;96.20;;;;;;4973374;28;19926;-50
2022/03/12 01:22:38;;;;;;;;;;;;;;;;;;4973425;28;20542;-48
2022/03/12 01:25:05;;;;;;;;;;;;;;;;;;4954116;28;19927;-49
2022/03/12 01:27:32;;;;;;;;;;;;;;;;;;4954739;28;19948;-49
2022/03/12 01:29:59;;;;;;;;;;;;;;;;;;4970817;28;19969;-49
2022/03/12 01:32:28;;;;;;;;;;;7.40;99.30;;;;;;4972374;28;20298;-50
2022/03/12 01:34:54;;;;;;;;;;;7.60;99.70;;;;;;4972808;28;19930;-49
2022/03/12 01:37:21;;;;;;;;;;;;;;;;;;4973157;28;19930;-50
2022/03/12 01:39:48;;;;;;;;;;;;;;;;;;4959094;28;19926;-49
2022/03/12 01:42:15;;;;;;;;;;;;;;;;;;4953899;29;20387;-49
2022/03/12 01:44:42;;;;;;;;;;;7.10;99.90;;;;;;4971496;28;19973;-50
2022/03/12 01:47:09;;;;;;;;;;;;;;;;;;4973296;28;20369;-49
2022/03/12 01:49:38;;;;;;;;;;;6.70;99.90;;;;;;4972953;28;19973;-49
2022/03/12 01:52:07;;;;;;;;;;;7.10;99.90;;;;;;4964254;28;20283;-49
2022/03/12 01:54:34;;;;;;;;;;;;;;;;;;4957428;28;19927;-49
2022/03/12 01:57:01;;;;;;;;;;;7.30;99.90;;;;;;4954006;29;19927;-49
2022/03/12 01:59:28;;;;;;;;;;;;;;;;;;4972097;28;19926;-49
2022/03/12 02:01:54;;;;;;;;;;;6.90;99.90;;;;;;4973119;28;19926;-49
2022/03/12 02:04:22;;;;;;;;;;;6.90;99.90;;;;;;4967883;28;19938;-49
2022/03/12 02:06:52;;;;;;;;;;;6.90;99.90;;;;;;4972864;28;19980;-50
2022/03/12 02:09:21;;;;;;;;;;;7.00;99.90;;;;;;4972624;28;19980;-49
2022/03/12 02:11:51;;;;;;;;;;;;;;;;;;4973167;28;19933;-50
2022/03/12 02:14:18;;;;;;;;;;;;;;;;;;4959246;28;20010;-49
2022/03/12 02:16:46;;;;;;;;;;;6.80;99.90;;;;;;4961809;28;19997;-49
2022/03/12 02:19:13;;;;;;;;;;;;;;;;;;4979036;28;19996;-50
2022/03/12 02:21:43;;;;;;;;;;;6.60;99.90;;;;;;4976052;28;19981;-50
2022/03/12 02:24:12;;;;;;;;;;;6.50;99.90;;;;;;4978640;28;19957;-49
2022/03/12 02:26:42;;;;;;;;;;;6.00;99.90;;;;;;4979422;28;19996;-49
2022/03/12 02:29:12;;;;;;;;;;;;;;;;;;4977677;28;19926;-49
2022/03/12 02:31:39;;;;;;;;;;;;;;;;;;4978809;28;19926;-49
2022/03/12 02:34:07;;;;;;;;;;;5.90;99.90;;;;;;4968534;28;19930;-50
2022/03/12 02:36:34;;;;;;;;;;;;;;;;;;4960022;29;20252;-50
2022/03/12 02:39:04;;;;;;;;;;;;;;;;;;4960043;29;19927;-49
2022/03/12 02:41:31;;;;;;;;;;;;;;;;;;4960080;28;20020;-49
2022/03/12 02:43:58;;;;;;;;;;;;;;;;;;4968718;28;19926;-50
2022/03/12 02:46:28;;;;;;;;;;;;;;;;;;4978470;28;19929;-50
2022/03/12 02:48:56;;;;;;;;;;;5.70;99.90;;;;;;4979175;28;20008;-50
2022/03/12 02:51:23;;;;;;;;;;;;;;;;;;4978892;28;20374;-50
2022/03/12 02:53:51;;;;;;;;;;;5.80;99.90;;;;;;4977441;28;19926;-49
2022/03/12 02:56:18;;;;;;;;;;;;;;;;;;4977295;28;19926;-50
2022/03/12 02:58:45;;;;;;;;;;;;;;;;;;4978788;28;19941;-50
2022/03/12 03:01:14;;;;;;;;;;;;;;;;;;4978696;28;19930;-50
2022/03/12 03:03:41;;;;;;;;;;;5.90;99.90;;;;;;4971708;28;19933;-50
2022/03/12 03:06:09;;;;;;;;;;;;;;;;;;4978555;28;20394;-50
2022/03/12 03:08:39;;;;;;;;;;;;;;;;;;4966362;28;20017;-50
2022/03/12 03:11:06;;;;;;;;;;;;;;;;;;4959455;29;19931;-50
2022/03/12 03:13:38;;;;;;;;;;;5.70;99.90;;;;;;4967336;28;19958;-49
2022/03/12 03:16:07;;;;;;;;;;;6.10;99.90;;;;;;4974238;28;19927;-49
2022/03/12 03:18:39;;;;;;;;;;;6.60;99.90;;;;;;4966461;28;19926;-49
2022/03/12 03:21:06;;;;;;;;;;;;;;;;;;4977160;28;19926;-49
2022/03/12 03:23:32;;;;;;;;;;;5.70;99.90;;;;;;4969073;28;19934;-49
2022/03/12 03:26:00;;;;;;;;;;;6.20;99.90;;;;;;4959507;29;20434;-50
2022/03/12 03:28:27;;;;;;;;;;;5.80;99.90;;;;;;4958339;28;19927;-50
2022/03/12 03:30:55;;;;;;;;;;;5.70;99.90;;;;;;4955482;29;19927;-50
2022/03/12 03:33:23;;;;;;;;;;;5.50;99.90;;;;;;4962687;28;20474;-49
2022/03/12 03:35:52;;;;;;;;;;;5.70;99.90;;;;;;4975521;28;19989;-50
2022/03/12 03:38:19;;;;;;;;;;;5.60;99.90;;;;;;4975128;28;19926;-50
2022/03/12 03:40:46;;;;;;;;;;;5.80;99.90;;;;;;4975350;28;19929;-49
2022/03/12 03:43:14;;;;;;;;;;;5.80;99.90;;;;;;4973120;28;19926;-49
2022/03/12 03:45:41;;;;;;;;;;;5.90;99.90;;;;;;4972380;28;19932;-50
2022/03/12 03:48:11;;;;;;;;;;;5.60;99.90;;;;;;4970068;28;20083;-50
2022/03/12 03:50:38;;;;;;;;;;;5.40;99.90;;;;;;4975177;28;19926;-50
2022/03/12 03:53:05;;;;;;;;;;;5.10;99.90;;;;;;4971661;28;20259;-50
2022/03/12 03:55:32;;;;;;;;;;;5.70;99.90;;;;;;4955790;29;20093;-50
2022/03/12 03:57:59;;;;;;;;;;;;;;;;;;4955944;28;19957;-50
2022/03/12 04:00:27;;;;;;;;;;;6.40;99.90;;;;;;4974912;28;19933;-50
2022/03/12 04:03:01;;;;;;;;;;;6.00;99.90;;;;;;4973972;28;19926;-50
2022/03/12 04:05:28;;;;;;;;;;;;;;;;;;4974733;28;19934;-50
2022/03/12 04:07:55;;;;;;;;;;;;;;;;;;4974913;28;19997;-50
2022/03/12 04:10:23;;;;;;;;;;;6.30;99.90;;;;;;4975117;28;19981;-50
2022/03/12 04:12:50;;;;;;;;;;;6.60;99.90;;;;;;4958548;28;19934;-50
2022/03/12 04:15:17;;;;;;;;;;;;;;;;;;4974381;28;20017;-50
2022/03/12 04:17:44;;;;;;;;;;;5.80;99.90;;;;;;4973946;28;20004;-50
2022/03/12 04:20:18;;;;;;;;;;;;;;;;;;4973521;28;19930;-50
2022/03/12 04:22:45;;;;;;;;;;;;;;;;;;4973626;28;19934;-50
2022/03/12 04:25:12;;;;;;;;;;;;;;;;;;4966329;28;20401;-49
2022/03/12 04:27:42;;;;;;;;;;;5.80;99.90;;;;;;4971296;28;19961;-49
2022/03/12 04:30:10;;;;;;;;;;;6.00;99.90;;;;;;4969062;28;20416;-49
2022/03/12 04:32:37;;;;;;;;;;;;;;;;;;4972470;28;19937;-50
2022/03/12 04:35:05;;;;;;;;;;;;;;;;;;4968935;28;19981;-49
2022/03/12 04:37:32;;;;;;;;;;;;;;;;;;4972068;28;19926;-49
2022/03/12 04:39:59;;;;;;;;;;;;;;;;;;4972732;28;19926;-49
2022/03/12 04:42:26;;;;;;;;;;;;;;;;;;4971326;28;19930;-49
2022/03/12 04:44:53;;;;;;;;;;;;;;;;;;4983084;28;20361;-50
2022/03/12 04:47:20;;;;;;;;;;;;;;;;;;4972350;28;19964;-50
2022/03/12 04:49:48;;;;;;;;;;;5.80;99.90;;;;;;4972747;28;20394;-50
2022/03/12 04:52:15;;;;;;;;;;;6.40;99.90;;;;;;4973170;28;19943;-49
2022/03/12 04:54:42;;;;;;;;;;;;;;;;;;4972507;28;20488;-49
2022/03/12 04:57:09;;;;;;;;;;;;;;;;;;4972270;28;19926;-50
2022/03/12 04:59:36;;;;;;;;;;;;;;;;;;4968604;28;19973;-50
2022/03/12 05:02:04;;;;;;;;;;;;;;;;;;4981816;28;19972;-49
2022/03/12 05:04:31;;;;;;;;;;;;;;;;;;4971891;28;19952;-49
2022/03/12 05:06:58;;;;;;;;;;;;;;;;;;4971783;28;19962;-49
2022/03/12 05:09:25;;;;;;;;;;;;;;;;;;4972430;28;19981;-49
2022/03/12 05:11:53;;;;;;;;;;;6.50;99.90;;;;;;4972322;28;19927;-49
2022/03/12 05:14:20;;;;;;;;;;;;;;;;;;4971627;28;20278;-49
2022/03/12 05:16:48;;;;;;;;;;;;;;;;;;4899174;28;2084959;-49
2022/03/12 05:19:16;;;;;;;;;;;;;;;;;;4972127;28;20414;-49
2022/03/12 05:21:43;;;;;;;;;;;;;;;;;;4973096;28;19926;-49
2022/03/12 05:24:10;;;;;;;;;;;;;;;;;;4972804;28;19926;-49
2022/03/12 05:26:38;;;;;;;;;;;;;;;;;;4971694;28;19926;-49
2022/03/12 05:29:05;;;;;;;;;;;;;;;;;;4969618;28;19930;-49
2022/03/12 05:31:32;;;;;;;;;;;;;;;;;;4972762;28;19926;-49
2022/03/12 05:33:59;;;;;;;;;;;;;;;;;;4972318;28;19926;-49
2022/03/12 05:36:26;;;;;;;;;;;;;;;;;;4972402;28;19926;-49
2022/03/12 05:38:53;;;;;;;;;;;;;;;;;;4972580;28;19930;-49
2022/03/12 05:41:21;;;;;;;;;;;4.60;99.90;;;;;;4972856;28;19926;-49
2022/03/12 05:43:48;;;;;;;;;;;;;;;;;;4971598;28;20386;-49
2022/03/12 05:46:16;;;;;;;;;;;;;;;;;;4975207;28;19926;-49
2022/03/12 05:48:43;;;;;;;;;;;4.80;99.90;;;;;;4976379;28;19926;-52
2022/03/12 05:51:10;;;;;;;;;;;;;;;;;;4973790;28;19926;-49
2022/03/12 05:53:37;;;;;;;;;;;4.50;99.90;;;;;;4981417;28;19934;-49
2022/03/12 05:56:05;;;;;;;;;;;4.60;99.90;;;;;;4968164;28;19974;-48
2022/03/12 05:58:39;;;;;;;;;;;4.40;99.90;;;;;;4972104;28;19974;-48
2022/03/12 06:01:06;;;;;;;;;;;;;;;;;;4971988;28;19926;-49
2022/03/12 06:03:36;;;;;;;;;;;4.70;99.90;;;;;;4971992;28;19933;-48
2022/03/12 06:06:03;;;;;;;;;;;;;;;;;;4972044;28;20421;-48
2022/03/12 06:08:33;;;;;;;;;;;;;;;;;;4971889;28;19926;-49
2022/03/12 06:11:00;;;;;;;;;;;;;;;;;;4972050;28;20314;-49
2022/03/12 06:13:28;;;;;;;;;;;4.70;99.90;;;;;;4970514;28;19934;-49
2022/03/12 06:15:59;;;;;;;;;;;4.80;99.90;;;;;;4970772;28;19926;-49
2022/03/12 06:18:26;;;;;;;;;;;5.20;99.90;;;;;;4978184;23;20409;-54
2022/03/12 06:20:53;;;;;;;;;;;;;;;;;;4951412;29;19973;-55
2022/03/12 06:23:20;;;;;;;;;;;;;;;;;;4939189;29;20015;-55
2022/03/12 06:25:47;;;;;;;;;;;5.50;99.90;;;;;;4951882;28;19926;-55
2022/03/12 06:28:14;;;;;;;;;;;5.90;99.90;;;;;;4952539;28;19927;-55
2022/03/12 06:30:41;;;;;;;;;;;;;;;;;;4952761;29;19934;-55
2022/03/12 06:33:08;;;;;;;;;;;;;;;;;;4952588;28;20614;-55
2022/03/12 06:35:35;;;;;;;;;;;;;;;;;;4952650;28;19930;-55
2022/03/12 06:38:04;;;;;;;;;;;7.70;99.90;;;;;;4952955;29;19926;-55
2022/03/12 06:40:30;;;;;;;;;;;8.60;99.90;;;;;;4952432;29;20029;-55
2022/03/12 06:42:59;;;;;;;;;;;;;;;;;;4951967;29;20022;-55
2022/03/12 06:45:26;;;;;;;;;;;10.10;99.90;;;;;;4952039;28;19974;-55
2022/03/12 06:47:53;;;;;;;;;;;10.50;99.90;;;;;;4952071;29;19926;-56
2022/03/12 06:50:22;;;;;;;;;;;10.70;99.90;;;;;;4952551;28;19927;-55
2022/03/12 06:52:50;;;;;;;;;;;11.00;99.90;;;;;;4953158;29;19982;-56
2022/03/12 06:55:19;;;;;;;;;;;11.20;99.90;;;;;;4952595;29;20429;-56
2022/03/12 06:57:46;;;;;;;;;;;11.80;99.40;;;;;;4952929;29;19926;-56
2022/03/12 07:00:14;;;;;;;;;;;12.40;98.90;;;;;;4952745;29;19927;-56
2022/03/12 07:02:41;;;;;;;;;;;13.50;96.90;;;;;;4957960;28;19938;-57
2022/03/12 07:05:08;;;;;;;;;;;13.30;95.90;;;;;;4944527;29;19933;-57
2022/03/12 07:07:35;;;;;;;;;;;13.10;95.10;;;;;;4955913;29;19981;-57
2022/03/12 07:10:01;;;;;;;;;;;13.00;95.30;;;;;;4956109;29;20414;-57
2022/03/12 07:12:29;;;;;;;;;;;12.30;95.80;;;;;;4954252;29;19994;-56
2022/03/12 07:14:56;;;;;;;;;;;11.70;96.60;;;;;;4954843;29;20461;-58
2022/03/12 07:17:23;;;;;;;;;;;10.10;97.50;;;;;;4955769;29;19927;-57
2022/03/12 07:19:50;;;;;;;;;;;10.10;97.70;;;;;;4955806;29;19926;-57
2022/03/12 07:22:18;;;;;;;;;;;9.90;99.40;;;;;;4954533;28;19953;-57
2022/03/12 07:24:45;;;;;;;;;;;10.20;98.90;;;;;;4954753;28;20005;-57
2022/03/12 07:27:12;;;;;;;;;;;9.80;98.60;;;;;;4953147;29;19927;-57
2022/03/12 07:29:40;;;;;;;;;;;9.70;99.00;;;;;;4954538;29;19926;-57
2022/03/12 07:32:07;;;;;;;;;;;10.40;98.30;;;;;;4955470;28;19927;-57
2022/03/12 07:34:34;;;;;;;;;;;10.00;97.90;;;;;;4954584;28;19974;-57
2022/03/12 07:37:01;;;;;;;;;;;9.50;99.40;;;;;;4952823;29;19931;-57
2022/03/12 07:39:28;;;;;;;;;;;9.40;99.70;;;;;;4954456;28;19934;-57
2022/03/12 07:41:54;;;;;;;;;;;9.80;99.70;;;;;;4955023;29;19934;-57
2022/03/12 07:44:22;;;;;;;;;;;9.60;99.90;;;;;;4954394;29;20434;-56
2022/03/12 07:46:50;;;;;;;;;;;10.30;98.00;;;;;;4953188;28;19941;-57
2022/03/12 07:49:17;;;;;;;;;;;10.20;98.50;;;;;;4954197;28;20009;-57
2022/03/12 07:51:44;;;;;;;;;;;11.20;98.30;;;;;;4954961;29;19982;-57
2022/03/12 07:54:13;;;;;;;;;;;12.30;96.30;;;;;;4953815;29;19969;-57
2022/03/12 07:56:39;;;;;;;;;;;13.00;94.70;;;;;;4954421;28;19997;-57
2022/03/12 07:59:06;;;;;;;;;;;13.10;94.80;;;;;;4953002;28;19990;-57
2022/03/12 08:01:33;;;;;;;;;;;14.60;93.30;;;;;;4955093;29;19927;-58
2022/03/12 08:04:02;;;;;;;;;;;14.40;92.30;;;;;;4951296;29;20233;-57
2022/03/12 08:06:29;;;;;;;;;;;14.30;90.90;;;;;;4954282;29;19933;-57
2022/03/12 08:08:56;;;;;;;;;;;14.20;91.10;;;;;;4954837;28;19942;-57
2022/03/12 08:11:27;;;;;;;;;;;14.70;91.40;;;;;;4954724;29;19978;-57
2022/03/12 08:13:55;;;;;;;;;;;15.80;89.20;;;;;;4952400;29;19931;-57
2022/03/12 08:16:22;;;;;;;;;;;17.10;87.40;;;;;;4954434;28;19936;-57
2022/03/12 08:18:49;;;;;;;;;;;17.70;84.50;;;;;;4940847;29;19927;-57
2022/03/12 08:21:17;;;;;;;;;;;16.60;86.50;;;;;;4943173;29;19926;-57
2022/03/12 08:23:47;;;;;;;;;;;18.20;84.30;;;;;;4952348;28;19938;-58
2022/03/12 08:26:14;;;;;;;;;;;18.40;79.40;;;;;;4955356;29;19934;-57
2022/03/12 08:28:41;;;;;;;;;;;18.80;78.70;;;;;;4954105;28;20414;-58
2022/03/12 08:31:08;;;;;;;;;;;19.40;79.10;;;;;;4955124;29;19974;-59
2022/03/12 08:33:36;;;;;;;;;;;19.90;79.30;;;;;;4954564;29;20374;-59
2022/03/12 08:36:04;;;;;;;;;;;20.60;77.40;;;;;;4954817;29;20378;-59
2022/03/12 08:38:36;;;;;;;;;;;20.20;74.10;;;;;;4955065;29;20163;-57
2022/03/12 08:41:03;;;;;;;;;;;20.00;75.50;;;;;;4954760;29;19957;-58
2022/03/12 08:43:33;;;;;;;;;;;19.60;76.50;;;;;;4950558;29;19927;-58
2022/03/12 08:46:00;;;;;;;;;;;18.90;74.90;;;;;;4952318;28;19950;-58
2022/03/12 08:48:27;;;;;;;;;;;21.80;74.10;;;;;;4954800;29;19982;-58
2022/03/12 08:50:54;;;;;;;;;;;23.10;72.00;;;;;;4954449;29;19930;-58
2022/03/12 08:53:21;;;;;;;;;;;23.30;71.80;;;;;;4954836;29;19982;-58
2022/03/12 08:55:49;;;;;;;;;;;24.30;68.90;;;;;;4955185;29;19977;-58
2022/03/12 08:58:16;;;;;;;;;;;23.70;66.40;;;;;;4954102;29;20478;-58
2022/03/12 09:00:43;;;;;;;;;;;22.10;69.90;;;;;;4953665;28;19927;-58
2022/03/12 09:03:12;;;;;;;;;;;22.30;71.10;;;;;;4952963;29;20335;-58
2022/03/12 09:05:39;;;;;;;;;;;22.80;69.80;;;;;;4953635;29;19926;-58
2022/03/12 09:08:07;;;;;;;;;;;23.20;67.20;;;;;;4953711;29;19926;-58
2022/03/12 09:10:34;;;;;;;;;;;22.30;69.50;;;;;;4953823;29;20029;-58
2022/03/12 09:13:02;;;;;;;;;;;22.90;69.10;;;;;;4953256;29;20001;-58
2022/03/12 09:15:29;;;;;;;;;;;23.90;66.50;;;;;;4953116;29;19931;-57
2022/03/12 09:17:56;;;;;;;;;;;22.80;66.00;;;;;;4953320;29;20426;-58
2022/03/12 09:20:23;;;;;;;;;;;22.90;66.70;;;;;;4953115;29;19931;-56
2022/03/12 09:22:50;;;;;;;;;;;24.00;66.00;;;;;;4947474;28;19933;-57
2022/03/12 09:25:16;;;;;;;;;;;24.20;65.60;;;;;;4951025;29;20314;-58
2022/03/12 09:27:44;;;;;;;;;;;24.20;65.60;;;;;;4951828;28;19926;-58
2022/03/12 09:30:14;;;;;;;;;;;24.40;65.50;;;;;;4952676;28;19934;-57
2022/03/12 09:32:40;;;;;;;;;;;23.50;66.40;;;;;;4941307;28;19946;-58
2022/03/12 09:35:08;;;;;;;;;;;22.80;66.50;;;;;;4935781;29;19927;-58
2022/03/12 09:37:37;;;;;;;;;;;24.00;64.40;;;;;;4941459;29;20370;-58
2022/03/12 09:40:05;;;;;;;;;;;24.00;64.40;;;;;;4952372;29;20302;-57
2022/03/12 09:42:32;;;;;;;;;;;24.10;63.70;;;;;;4952293;29;19985;-57
2022/03/12 09:44:59;;;;;;;;;;;23.30;64.80;;;;;;4938320;29;19931;-57
2022/03/12 09:47:27;;;;;;;;;;;22.30;61.20;;;;;;4947615;29;19934;-57
2022/03/12 09:49:54;;;;;;;;;;;22.20;63.40;;;;;;4944011;29;20349;-57
2022/03/12 09:52:20;;;;;;;;;;;23.50;62.40;;;;;;4952505;29;19926;-57
2022/03/12 09:54:49;;;;;;;;;;;24.20;61.00;;;;;;4948025;29;19977;-57
2022/03/12 09:57:16;;;;;;;;;;;24.50;60.20;;;;;;4941228;29;19934;-58
2022/03/12 09:59:43;;;;;;;;;;;24.40;59.00;;;;;;4940865;29;19977;-57
2022/03/12 10:02:09;;;;;;;;;;;25.30;60.60;;;;;;4942980;29;20430;-57
2022/03/12 10:04:38;;;;;;;;;;;25.90;59.50;;;;;;4934769;29;19974;-58
2022/03/12 10:07:09;;;;;;;;;;;24.20;62.10;;;;;;4950339;29;20342;-57
2022/03/12 10:09:36;;;;;;;;;;;23.80;60.50;;;;;;4951827;29;19926;-58
2022/03/12 10:12:03;;;;;;;;;;;22.60;63.70;;;;;;4944879;29;19926;-58
2022/03/12 10:14:30;;;;;;;;;;;22.50;64.20;;;;;;4936875;29;19926;-59
2022/03/12 10:16:56;;;;;;;;;;;23.40;62.70;;;;;;4934333;29;19994;-58
2022/03/12 10:19:24;;;;;;;;;;;23.40;61.70;;;;;;4938458;29;19926;-58
2022/03/12 10:21:52;;;;;;;;;;;24.50;60.80;;;;;;4946534;29;19981;-58
2022/03/12 10:24:19;;;;;;;;;;;24.50;58.90;;;;;;4940788;29;20049;-59
2022/03/12 10:26:46;;;;;;;;;;;25.30;57.90;;;;;;4952960;29;19926;-59
2022/03/12 10:29:13;;;;;;;;;;;25.60;58.20;;;;;;4952714;29;20002;-59
2022/03/12 10:31:41;;;;;;;;;;;24.80;61.20;;;;;;4948253;29;20017;-58
2022/03/12 10:34:14;;;;;;;;;;;24.40;61.70;;;;;;4951666;29;19977;-58
2022/03/12 10:36:41;;;;;;;;;;;22.20;65.20;;;;;;4942409;29;19982;-56
2022/03/12 10:39:10;;;;;;;;;;;22.30;66.10;;;;;;4948982;28;19981;-58
2022/03/12 10:41:37;;;;;;;;;;;22.30;65.80;;;;;;4939875;29;19949;-58
2022/03/12 10:44:05;;;;;;;;;;;22.70;67.00;;;;;;4944603;29;19958;-58
2022/03/12 10:46:31;;;;;;;;;;;21.00;68.10;;;;;;4956320;29;20283;-58
2022/03/12 10:48:59;;;;;;;;;;;21.00;69.10;;;;;;4941083;29;19978;-57
2022/03/12 10:51:27;;;;;;;;;;;21.40;69.70;;;;;;4955997;29;19997;-58
2022/03/12 10:54:04;;;;;;;;;;;21.70;68.90;;;;;;4954504;29;19928;-58
2022/03/12 10:56:48;;;;;;;;;;;20.20;73.30;;;;;;4955019;29;19927;-58
2022/03/12 10:59:17;;;;;;;;;;;20.00;70.80;;;;;;4942585;29;19930;-58
2022/03/12 11:01:47;;;;;;;;;;;19.40;73.80;;;;;;4949731;29;19927;-58
2022/03/12 11:04:18;;;;;;;;;;;19.40;72.50;;;;;;4951314;29;19985;-58
2022/03/12 11:06:46;;;;;;;;;;;18.60;77.80;;;;;;4956301;28;19927;-58
2022/03/12 11:09:15;;;;;;;;;;;18.70;78.60;;;;;;4955955;28;19931;-58
2022/03/12 11:11:44;;;;;;;;;;;17.70;79.10;;;;;;4955929;28;20379;-58
2022/03/12 11:14:15;;;;;;;;;;;16.90;82.80;;;;;;4954728;28;19964;-56
2022/03/12 11:16:42;;;;;;;;;;;17.50;81.60;;;;;;4958179;28;19926;-56
2022/03/12 11:19:11;;;;;;;;;;;17.60;81.10;;;;;;4955965;28;19958;-57
2022/03/12 11:21:40;;;;;;;;;;;17.60;80.90;;;;;;4959177;28;19926;-57
2022/03/12 11:24:09;;;;;;;;;;;17.80;82.30;;;;;;4954548;29;19932;-57
2022/03/12 11:26:47;;;;;;;;;;;16.40;86.00;;;;;;4954416;29;19934;-57
2022/03/12 11:29:14;;;;;;;;;;;;;;;;;;4955225;29;20262;-56
2022/03/12 11:31:42;;;;;;;;;;;16.30;83.40;;;;;;4952342;29;19981;-56
2022/03/12 11:34:20;;;;;;;;;;;16.10;83.40;;;;;;4954176;29;20013;-57
2022/03/12 11:36:48;;;;;;;;;;;16.30;84.20;;;;;;4949680;29;20405;-56
2022/03/12 11:39:19;;;;;;;;;;;16.30;84.80;;;;;;4955033;28;19934;-57
2022/03/12 11:42:00;;;;;;;;;;;16.50;81.50;;;;;;4954533;28;19926;-56
2022/03/12 11:44:27;;;;;;;;;;;17.20;81.70;;;;;;4954217;29;19933;-56
2022/03/12 11:46:54;;;;;;;;;;;17.00;83.40;;;;;;4954198;29;20363;-56
2022/03/12 11:49:22;;;;;;;;;;;16.90;82.00;;;;;;4954108;28;19930;-56
2022/03/12 11:51:50;;;;;;;;;;;16.80;80.60;;;;;;4953446;29;19926;-56
2022/03/12 11:54:16;;;;;;;;;;;16.80;80.70;;;;;;4950170;28;19969;-57
2022/03/12 11:56:43;;;;;;;;;;;16.70;79.60;;;;;;4955624;28;20346;-57
2022/03/12 11:59:12;;;;;;;;;;;16.90;77.20;;;;;;4957789;28;19981;-57
2022/03/12 12:01:40;;;;;;;;;;;17.00;79.30;;;;;;4954105;28;20299;-56
2022/03/12 12:04:07;;;;;;;;;;;17.00;79.10;;;;;;4965157;28;19969;-57
2022/03/12 12:06:34;;;;;;;;;;;16.70;79.50;;;;;;4955163;29;19973;-57
2022/03/12 12:09:02;;;;;;;;;;;16.60;79.70;;;;;;4955600;28;19927;-57
2022/03/12 12:11:30;;;;;;;;;;;16.90;77.90;;;;;;4959615;28;19933;-58
2022/03/12 12:13:58;;;;;;;;;;;16.60;74.40;;;;;;4957989;28;19934;-57
2022/03/12 12:16:29;;;;;;;;;;;17.20;75.50;;;;;;4954487;29;20454;-57
2022/03/12 12:18:55;;;;;;;;;;;17.30;69.30;;;;;;4977360;23;19962;-49
2022/03/12 12:21:22;;;;;;;;;;;17.90;71.30;;;;;;4954825;29;20346;-49
2022/03/12 12:23:49;;;;;;;;;;;17.90;71.00;;;;;;4954887;28;19927;-49
2022/03/12 12:26:16;;;;;;;;;;;18.00;65.10;;;;;;4953428;28;20402;-50
2022/03/12 12:28:47;;;;;;;;;;;18.00;67.40;;;;;;4953219;28;19937;-49
2022/03/12 12:31:15;;;;;;;;;;;17.80;66.60;;;;;;4953190;28;19933;-49
2022/03/12 12:33:44;;;;;;;;;;;17.30;70.10;;;;;;4953169;29;19927;-49
2022/03/12 12:36:12;;;;;;;;;;;16.50;69.40;;;;;;4952777;29;19930;-49
2022/03/12 12:38:40;;;;;;;;;;;16.60;69.90;;;;;;4941339;28;20303;-49
2022/03/12 12:41:07;;;;;;;;;;;16.40;70.20;;;;;;4935732;29;19933;-50
2022/03/12 12:43:35;;;;;;;;;;;16.20;69.50;;;;;;4937581;28;19926;-49
2022/03/12 12:46:08;;;;;;;;;;;16.90;67.90;;;;;;4952967;29;19950;-49
2022/03/12 12:48:38;;;;;;;;;;;17.20;67.70;;;;;;4952974;29;19926;-49
2022/03/12 12:51:11;;;;;;;;;;;17.50;67.80;;;;;;4953475;29;19930;-49
2022/03/12 12:53:39;;;;;;;;;;;17.70;66.40;;;;;;4949600;28;19958;-50
2022/03/12 12:56:30;;;;;;;;;;;17.20;69.40;;;;;;4953159;28;19935;-50
2022/03/12 12:59:08;;;;;;;;;;;17.10;70.30;;;;;;4936682;28;19937;-50
2022/03/12 13:01:45;;;;;;;;;;;17.20;67.70;;;;;;4952354;28;20389;-50
2022/03/12 13:04:13;;;;;;;;;;;17.50;71.00;;;;;;4957552;28;19926;-50
2022/03/12 13:06:48;;;;;;;;;;;17.40;69.10;;;;;;4953016;29;20005;-50
2022/03/12 13:09:18;;;;;;;;;;;17.30;67.50;;;;;;4953162;28;20397;-50
2022/03/12 13:11:50;;;;;;;;;;;17.00;67.90;;;;;;4952988;28;20450;-50
2022/03/12 13:14:18;;;;;;;;;;;16.90;67.10;;;;;;4953103;28;19937;-50
2022/03/12 13:16:48;;;;;;;;;;;17.40;68.30;;;;;;4948810;28;20383;-49
2022/03/12 13:19:27;;;;;;;;;;;17.30;66.60;;;;;;4951141;28;19936;-50
2022/03/12 13:21:58;;;;;;;;;;;17.30;69.90;;;;;;4949771;29;19982;-50
2022/03/12 13:24:28;;;;;;;;;;;16.60;69.20;;;;;;4952734;29;20414;-51
2022/03/12 13:26:55;;;;;;;;;;;16.20;71.60;;;;;;4952216;28;19989;-50
2022/03/12 13:29:22;;;;;;;;;;;16.10;72.10;;;;;;4952707;28;19926;-50
2022/03/12 13:31:50;;;;;;;;;;;15.30;69.70;;;;;;4952900;29;20390;-51
2022/03/12 13:34:17;;;;;;;;;;;15.70;72.90;;;;;;4942030;29;19941;-50
2022/03/12 13:36:45;;;;;;;;;;;15.60;73.40;;;;;;4947570;29;19927;-51
2022/03/12 13:39:15;;;;;;;;;;;16.00;72.20;;;;;;4950930;28;19932;-51
2022/03/12 13:41:42;;;;;;;;;;;16.10;71.80;;;;;;4951224;28;20326;-50
2022/03/12 13:44:09;;;;;;;;;;;16.20;72.20;;;;;;4953449;28;19978;-51
2022/03/12 13:46:36;;;;;;;;;;;16.10;72.10;;;;;;4960432;28;19926;-50
2022/03/12 13:49:09;;;;;;;;;;;16.50;68.10;;;;;;4953577;28;20402;-50
2022/03/12 13:51:39;;;;;;;;;;;16.70;66.80;;;;;;4968743;28;19930;-50
2022/03/12 13:54:06;;;;;;;;;;;16.50;70.60;;;;;;4957080;28;19930;-50
2022/03/12 13:56:35;;;;;;;;;;;16.40;71.10;;;;;;4952658;29;20470;-50
2022/03/12 13:59:04;;;;;;;;;;;16.10;67.40;;;;;;4952700;29;19933;-50
2022/03/12 14:01:34;;;;;;;;;;;15.80;68.40;;;;;;4951687;29;19969;-51
2022/03/12 14:04:01;;;;;;;;;;;15.70;68.70;;;;;;4950570;28;20028;-51
2022/03/12 14:06:32;;;;;;;;;;;16.00;68.80;;;;;;4952222;28;19930;-51
2022/03/12 14:08:59;;;;;;;;;;;16.20;67.20;;;;;;4952321;28;19927;-51
2022/03/12 14:11:34;;;;;;;;;;;16.60;68.80;;;;;;4947873;29;19938;-51
2022/03/12 14:14:03;;;;;;;;;;;17.20;67.10;;;;;;4945063;29;20363;-51
2022/03/12 14:16:30;;;;;;;;;;;17.50;71.10;;;;;;4952565;28;19938;-50
2022/03/12 14:19:00;;;;;;;;;;;17.50;70.00;;;;;;4952183;28;19938;-52
2022/03/12 14:21:37;;;;;;;;;;;17.30;70.40;;;;;;4952064;28;19926;-52
2022/03/12 14:24:22;;;;;;;;;;;16.60;66.90;;;;;;4942716;28;20026;-51
2022/03/12 14:26:53;;;;;;;;;;;17.00;67.10;;;;;;4951255;28;19927;-51
2022/03/12 14:29:23;;;;;;;;;;;17.30;71.60;;;;;;4952020;28;20351;-51
2022/03/12 14:31:50;;;;;;;;;;;17.30;71.60;;;;;;4952230;28;20062;-51
2022/03/12 14:34:17;;;;;;;;;;;17.40;72.70;;;;;;4952684;29;19931;-51
2022/03/12 14:36:45;;;;;;;;;;;17.50;69.30;;;;;;4952524;28;19927;-51
2022/03/12 14:39:14;;;;;;;;;;;17.00;68.00;;;;;;4957997;28;20361;-50
2022/03/12 14:41:41;;;;;;;;;;;16.30;69.20;;;;;;4953096;28;19954;-51
2022/03/12 14:44:11;;;;;;;;;;;17.80;72.30;;;;;;4952677;28;20366;-50
2022/03/12 14:46:41;;;;;;;;;;;17.50;68.60;;;;;;4952401;28;19926;-51
2022/03/12 14:49:19;;;;;;;;;;;17.60;69.00;;;;;;4952736;29;20021;-50
2022/03/12 14:51:49;;;;;;;;;;;17.10;66.00;;;;;;4952856;28;19927;-52
2022/03/12 14:54:16;;;;;;;;;;;16.80;71.00;;;;;;4952548;29;20013;-51
2022/03/12 14:56:43;;;;;;;;;;;17.30;72.20;;;;;;4951770;29;20387;-51
2022/03/12 14:59:12;;;;;;;;;;;16.70;72.50;;;;;;4952317;29;20314;-51
2022/03/12 15:01:40;;;;;;;;;;;17.00;68.40;;;;;;4951901;28;19930;-50